< < Back
Terminal Aerodrome Forecast


Current Version              Previous Versions:   1  2  3  4  5  6  7  8  9  

Terminal Aerodrome Forecast

345
FTUS44 KMRX 210906 AAA
TAFTYS
TAF AMD
KTYS 210906Z 2109/2206 00000KT 1/2SM FG BKN003
      TEMPO 2109/2111 1/4SM FG VV002
     FM211200 VRB02KT 2SM BR SCT005 BKN250
     FM211300 23004KT P6SM FEW030 BKN250
     FM212100 25008KT P6SM VCTS BKN050CB
     FM220200 22004KT P6SM SCT060 BKN120=



Latest METAR

292
SAUS80 KWBC 212200
MTRTYS
METAR KTYS 212153Z 24006KT 10SM FEW035 SCT250 31/22 A3009 RMK AO2 SLP178
T03110217


USA.gov is the U.S. government's official web portal to all federal, state and local government web resources and services.